Date,TemperatureHighF,TemperatureAvgF,TemperatureLowF,DewpointHighF,DewpointAvgF,DewpointLowF,HumidityHigh,HumidityAvg,HumidityLow,PressureMaxIn,PressureMinIn,WindSpeedMaxMPH,WindSpeedAvgMPH,GustSpeedMaxMPH,PrecipitationSumIn
2013-1-1,41,38,30,31,29,20,76,70,65,29.69,29.54,6,2,15,0.00
2013-1-2,34,28,25,19,17,16,70,63,51,29.87,29.66,7,2,14,0.00
2013-1-3,34,28,23,21,18,16,76,65,49,29.87,29.76,7,2,16,0.00
2013-1-4,38,34,30,24,23,21,69,63,57,29.79,29.67,11,4,19,0.00
2013-1-5,41,34,29,26,23,20,76,64,52,30.00,29.73,12,2,17,0.00
2013-1-6,47,39,32,34,30,25,95,71,48,29.89,29.66,5,1,13,0.02
2013-1-7,47,39,31,32,29,27,83,67,48,30.07,29.75,6,2,13,0.00
2013-1-8,48,37,28,35,30,25,90,78,59,30.08,30.01,7,1,12,0.00
2013-1-9,49,42,31,41,36,30,95,80,68,30.05,29.84,8,2,13,0.00
2013-1-10,50,43,38,35,29,27,69,58,46,30.19,29.97,9,2,16,0.00
2013-1-11,46,42,38,44,36,27,98,80,64,30.18,29.75,3,1,11,0.42
2013-1-12,52,45,42,48,44,42,99,96,86,29.83,29.75,3,0,6,0.00
2013-1-13,50,46,43,50,46,43,100,99,98,29.81,29.66,3,1,8,0.01
2013-1-14,53,50,41,53,46,37,100,90,65,29.95,29.62,6,1,10,0.23
2013-1-15,40,37,34,38,32,30,96,84,73,30.01,29.87,4,2,10,0.21
2013-1-16,37,35,33,36,34,32,99,98,95,29.84,29.47,5,2,10,0.54
2013-1-17,42,39,37,37,32,30,97,79,64,29.76,29.61,6,1,14,0.00
2013-1-18,36,31,28,31,19,12,85,62,42,30.14,29.68,15,2,16,0.00
2013-1-19,50,39,29,32,27,16,81,62,45,30.06,29.61,5,2,20,0.00
2013-1-20,54,43,30,32,26,12,74,53,29,29.72,29.41,14,4,27,0.00
2013-1-21,34,28,24,25,15,11,92,58,45,29.77,29.52,5,1,14,0.00
2013-1-22,24,18,13,13,2,-2,63,48,38,29.91,29.54,11,5,26,0.00
2013-1-23,20,14,10,8,2,-1,83,58,44,29.95,29.84,11,2,18,0.00
2013-1-24,25,19,14,9,4,0,80,54,33,30.10,29.78,7,2,19,0.00
2013-1-25,23,17,12,16,7,0,93,66,43,30.11,29.73,7,2,14,0.00
2013-1-26,27,19,12,15,12,9,93,73,51,30.05,29.72,8,1,15,0.00
2013-1-27,35,24,14,18,15,9,82,68,49,30.22,30.06,6,1,14,0.00
2013-1-28,37,32,25,37,28,18,97,88,71,30.16,29.69,8,1,14,0.01
2013-1-29,50,43,36,46,41,35,98,92,83,29.80,29.68,4,1,10,0.00
2013-1-30,67,54,42,60,52,42,100,94,80,29.70,29.04,10,2,23,0.22
2013-1-31,60,45,29,59,33,12,99,66,41,29.51,28.76,20,7,31,0.61